createdAt,value
2019-06-10T00:04:25.601Z,20.96
2019-06-10T00:09:27.700Z,20.88
2019-06-10T00:14:31.457Z,20.75
2019-06-10T00:19:33.693Z,20.67
2019-06-10T00:24:35.800Z,20.57
2019-06-10T00:29:37.724Z,20.50
2019-06-10T00:34:41.930Z,20.36
2019-06-10T00:39:44.653Z,20.29
2019-06-10T00:44:46.531Z,20.32
2019-06-10T00:49:51.289Z,20.30
2019-06-10T00:54:54.555Z,20.27
2019-06-10T01:00:01.217Z,20.36
2019-06-10T01:05:03.146Z,20.39
2019-06-10T01:10:06.748Z,20.33
2019-06-10T01:15:12.111Z,20.24
2019-06-10T01:20:15.985Z,20.30
2019-06-10T01:25:18.068Z,20.28
2019-06-10T01:30:26.486Z,20.28
2019-06-10T01:35:25.601Z,20.34
2019-06-10T01:40:31.304Z,20.37
2019-06-10T01:45:33.264Z,20.37
2019-06-10T01:50:36.134Z,20.35
2019-06-10T01:55:38.684Z,20.35
2019-06-10T02:00:56.575Z,20.42
2019-06-10T02:06:01.575Z,20.55
2019-06-10T02:11:03.756Z,20.64
2019-06-10T02:16:06.808Z,20.50
2019-06-10T02:21:14.305Z,20.53
2019-06-10T02:26:16.184Z,20.56
2019-06-10T02:31:24.542Z,20.43
2019-06-10T02:36:30.895Z,20.30
2019-06-10T02:41:31.842Z,20.35
2019-06-10T02:46:36.037Z,20.26
2019-06-10T02:51:37.059Z,20.07
2019-06-10T02:56:39.129Z,19.96
2019-06-10T03:01:43.991Z,19.90
2019-06-10T03:06:46.513Z,19.88
2019-06-10T03:11:53.336Z,19.86
2019-06-10T03:16:57.213Z,19.87
2019-06-10T03:21:59.312Z,19.80
2019-06-10T03:27:02.695Z,19.73
2019-06-10T03:32:05.835Z,19.71
2019-06-10T03:37:07.758Z,19.72
2019-06-10T03:42:09.838Z,19.74
2019-06-10T03:47:12.193Z,19.84
2019-06-10T03:52:14.435Z,19.89
2019-06-10T03:57:17.159Z,19.88
2019-06-10T04:02:19.460Z,20.10
2019-06-10T04:07:27.343Z,20.17
2019-06-10T04:12:27.858Z,20.14
2019-06-10T04:17:33.348Z,20.05
2019-06-10T04:22:35.140Z,20.11
2019-06-10T04:27:39.387Z,20.19
2019-06-10T04:32:42.991Z,20.28
2019-06-10T04:37:45.284Z,20.09
2019-06-10T04:42:47.477Z,19.97
2019-06-10T04:47:52.377Z,20.02
2019-06-10T04:52:54.552Z,20.02
2019-06-10T04:57:56.449Z,20.03
2019-06-10T05:02:58.855Z,20.02
2019-06-10T05:08:02.682Z,20.06
2019-06-10T05:13:04.983Z,20.08
2019-06-10T05:18:07.328Z,20.14
2019-06-10T05:23:12.626Z,20.21
2019-06-10T05:28:16.550Z,20.27
2019-06-10T05:33:20.029Z,20.23
2019-06-10T05:38:27.523Z,20.33
2019-06-10T05:43:32.924Z,20.46
2019-06-10T05:48:36.733Z,20.58
2019-06-10T05:53:42.183Z,20.69
2019-06-10T05:58:45.822Z,20.77
2019-06-10T06:03:52.654Z,20.95
2019-06-10T06:08:56.593Z,20.77
2019-06-10T06:13:58.542Z,20.91
2019-06-10T06:19:03.270Z,20.94
2019-06-10T06:24:07.362Z,20.92
2019-06-10T06:29:12.820Z,21.10
2019-06-10T06:34:14.352Z,21.12
2019-06-10T06:39:17.821Z,21.20
2019-06-10T06:44:23.407Z,21.21
2019-06-10T06:49:25.848Z,21.19
2019-06-10T06:54:30.537Z,21.23
2019-06-10T06:59:36.969Z,21.30
2019-06-10T07:04:38.821Z,21.42
2019-06-10T07:09:44.188Z,21.57
2019-06-10T07:14:52.637Z,21.76
2019-06-10T07:19:57.627Z,21.82
2019-06-10T07:25:06.481Z,21.82
2019-06-10T07:30:14.626Z,21.89
2019-06-10T07:40:27.290Z,22.05
2019-06-10T07:45:29.889Z,22.07
2019-06-10T07:50:34.992Z,22.21
2019-06-10T07:55:44.762Z,22.17
2019-06-10T08:00:48.356Z,22.27
2019-06-10T08:05:52.766Z,22.34
2019-06-10T08:10:54.896Z,22.46
2019-06-10T08:15:58.726Z,22.53
2019-06-10T08:21:03.169Z,22.64
2019-06-10T08:26:08.491Z,22.80
2019-06-10T08:31:12.467Z,22.99
2019-06-10T08:36:14.775Z,23.10
2019-06-10T08:41:17.720Z,23.35
2019-06-10T08:46:22.599Z,23.52
2019-06-10T08:51:26.180Z,23.68
2019-06-10T08:56:28.626Z,23.87
2019-06-10T09:01:33.583Z,23.95
2019-06-10T09:06:38.701Z,24.00
2019-06-10T09:11:47.447Z,24.10
2019-06-10T09:16:51.892Z,24.10
2019-06-10T09:21:56.543Z,24.20
2019-06-10T09:27:02.698Z,24.36
2019-06-10T09:32:04.109Z,24.48
2019-06-10T09:37:06.997Z,24.53
2019-06-10T09:42:08.986Z,24.73
2019-06-10T09:47:14.582Z,24.86
2019-06-10T09:52:17.962Z,24.97
2019-06-10T09:57:23.866Z,25.08
2019-06-10T10:02:27.036Z,25.06
2019-06-10T10:07:32.590Z,24.98
2019-06-10T10:12:35.673Z,25.00
2019-06-10T10:17:38.062Z,25.18
2019-06-10T10:22:44.085Z,25.31
2019-06-10T10:27:51.228Z,25.26
2019-06-10T10:32:54.052Z,25.33
2019-06-10T10:37:58.369Z,25.44
2019-06-10T10:43:19.806Z,25.44
2019-06-10T10:48:04.717Z,25.61
2019-06-10T10:53:09.480Z,25.73
2019-06-10T10:58:13.593Z,25.82
2019-06-10T11:03:17.060Z,25.98
2019-06-10T11:08:22.800Z,25.98
2019-06-10T11:13:27.795Z,26.19
2019-06-10T11:18:34.018Z,26.26
2019-06-10T11:23:38.231Z,26.52
2019-06-10T11:28:43.332Z,26.56
2019-06-10T11:33:48.702Z,26.43
2019-06-10T11:38:57.382Z,26.49
2019-06-10T11:44:00.785Z,26.40
2019-06-10T11:49:05.566Z,26.63
2019-06-10T11:54:12.906Z,26.90
2019-06-10T11:59:16.106Z,27.09
2019-06-10T12:04:18.381Z,27.22
2019-06-10T12:09:22.884Z,27.19
2019-06-10T12:14:27.196Z,27.29
2019-06-10T12:19:29.302Z,27.29
2019-06-10T12:24:33.171Z,27.32
2019-06-10T12:29:35.131Z,27.37
2019-06-10T12:34:37.219Z,27.37
2019-06-10T12:39:42.056Z,27.33
2019-06-10T12:44:44.662Z,27.48
2019-06-10T12:49:46.668Z,27.47
2019-06-10T12:54:48.552Z,27.49
2019-06-10T12:59:52.245Z,27.50
2019-06-10T13:04:55.538Z,27.74
2019-06-10T13:09:57.896Z,27.81
2019-06-10T13:15:03.349Z,27.89
2019-06-10T13:20:06.434Z,27.88
2019-06-10T13:25:09.936Z,27.88
2019-06-10T13:30:12.260Z,27.93
2019-06-10T13:35:14.591Z,27.95
2019-06-10T13:40:17.582Z,27.88
2019-06-10T13:45:19.932Z,27.88
2019-06-10T13:50:25.024Z,27.98
2019-06-10T13:55:26.116Z,28.15
2019-06-10T14:00:41.722Z,28.20
2019-06-10T14:05:34.353Z,28.47
2019-06-10T14:10:36.723Z,28.60
2019-06-10T14:15:38.709Z,28.71
2019-06-10T14:20:44.053Z,28.67
2019-06-10T14:25:45.127Z,28.64
2019-06-10T14:30:47.255Z,28.75
2019-06-10T14:35:49.091Z,28.67
2019-06-10T14:40:52.612Z,28.68
2019-06-10T14:45:54.965Z,28.70
2019-06-10T14:50:57.091Z,29.20
2019-06-10T14:55:59.007Z,28.98
2019-06-10T15:01:04.834Z,29.00
2019-06-10T15:06:09.174Z,28.91
2019-06-10T15:11:13.727Z,28.90
2019-06-10T15:16:18.314Z,28.90
2019-06-10T15:21:23.289Z,28.83
2019-06-10T15:26:29.066Z,28.89
2019-06-10T15:31:34.273Z,28.82
2019-06-10T15:36:37.764Z,28.90
2019-06-10T15:41:44.041Z,28.90
2019-06-10T15:46:48.116Z,28.81
2019-06-10T15:51:52.565Z,28.73
2019-06-10T15:56:56.796Z,28.87
2019-06-10T16:01:59.099Z,28.89
2019-06-10T16:07:02.558Z,28.88
2019-06-10T16:12:07.862Z,28.86
2019-06-10T16:17:12.916Z,28.70
2019-06-10T16:22:17.477Z,28.59
2019-06-10T16:27:23.020Z,28.39
2019-06-10T16:32:27.547Z,28.29
2019-06-10T16:37:32.799Z,28.19
2019-06-10T16:42:37.968Z,28.27
2019-06-10T16:47:43.636Z,28.15
2019-06-10T16:52:46.076Z,28.10
2019-06-10T16:57:58.838Z,28.03
2019-06-10T17:02:56.270Z,28.01
2019-06-10T17:08:00.097Z,27.99
2019-06-10T17:13:07.201Z,27.94
2019-06-10T17:18:09.705Z,27.85
2019-06-10T17:23:26.665Z,27.82
2019-06-10T17:28:36.207Z,27.81
2019-06-10T17:33:36.612Z,27.70
2019-06-10T17:38:42.999Z,27.71
2019-06-10T17:43:49.312Z,27.68
2019-06-10T17:48:52.989Z,27.72
2019-06-10T17:59:14.916Z,27.80
2019-06-10T18:04:22.194Z,27.69
2019-06-10T18:09:27.832Z,27.58
2019-06-10T18:14:33.286Z,27.45
2019-06-10T18:19:37.957Z,27.35
2019-06-10T18:24:43.106Z,27.30
2019-06-10T18:29:47.069Z,27.23
2019-06-10T18:34:54.224Z,27.16
2019-06-10T18:39:58.855Z,27.04
2019-06-10T18:45:02.725Z,26.86
2019-06-10T18:50:12.588Z,26.74
2019-06-10T18:55:16.622Z,26.60
2019-06-10T19:00:23.046Z,26.42
2019-06-10T19:05:28.573Z,26.29
2019-06-10T19:10:34.270Z,26.13
2019-06-10T19:15:40.466Z,26.11
2019-06-10T19:20:45.715Z,26.10
2019-06-10T19:25:52.503Z,26.00
2019-06-10T19:31:02.819Z,25.71
2019-06-10T19:36:06.160Z,25.68
2019-06-10T19:41:13.672Z,25.68
2019-06-10T19:46:17.269Z,25.47
2019-06-10T19:51:20.523Z,25.27
2019-06-10T19:56:26.530Z,24.93
2019-06-10T20:01:30.063Z,24.86
2019-06-10T20:06:35.722Z,24.78
2019-06-10T20:11:38.887Z,24.58
2019-06-10T20:16:44.665Z,24.40
2019-06-10T20:21:49.168Z,24.33
2019-06-10T20:26:52.922Z,24.34
2019-06-10T20:31:55.321Z,24.36
2019-06-10T20:37:04.283Z,24.31
2019-06-10T20:42:07.978Z,24.30
2019-06-10T20:47:13.976Z,24.13
2019-06-10T20:52:15.023Z,24.00
2019-06-10T20:57:18.251Z,23.75
2019-06-10T21:02:22.521Z,23.87
2019-06-10T21:07:27.054Z,23.89
2019-06-10T21:12:32.698Z,23.81
2019-06-10T21:17:35.030Z,23.77
2019-06-10T21:22:37.089Z,23.67
2019-06-10T21:27:40.626Z,23.59
2019-06-10T21:32:45.295Z,23.61
2019-06-10T21:37:48.239Z,23.58
2019-06-10T21:42:53.746Z,23.52
2019-06-10T21:47:57.509Z,23.24
2019-06-10T21:53:02.637Z,23.05
2019-06-10T21:58:06.346Z,22.90
2019-06-10T22:03:09.063Z,22.73
2019-06-10T22:08:12.531Z,22.78
2019-06-10T22:13:14.771Z,22.99
2019-06-10T22:18:16.629Z,22.79
2019-06-10T22:23:18.730Z,22.72
2019-06-10T22:28:22.182Z,22.66
2019-06-10T22:33:24.474Z,22.80
2019-06-10T22:38:26.437Z,22.74
2019-06-10T22:43:28.345Z,22.62
2019-06-10T22:48:30.299Z,22.78
2019-06-10T22:53:34.248Z,22.72
2019-06-10T22:58:36.255Z,22.57
2019-06-10T23:03:38.286Z,22.48
2019-06-10T23:08:40.283Z,22.42
2019-06-10T23:13:42.504Z,22.37
2019-06-10T23:18:44.451Z,22.40
2019-06-10T23:23:46.641Z,22.30
2019-06-10T23:28:49.597Z,22.16
2019-06-10T23:33:55.964Z,21.88
2019-06-10T23:38:57.071Z,21.81
2019-06-10T23:43:59.233Z,21.64
2019-06-10T23:49:04.375Z,21.69
2019-06-10T23:54:06.305Z,21.72
2019-06-10T23:59:08.340Z,21.86
